Time;durP1;ratioP1;P1;durP2;ratioP2;P2;SDS_P1;SDS_P2;PMS_P1;PMS_P2;Temp;Humidity;BMP_temperature;BMP_pressure;BME280_temperature;BME280_humidity;BME280_pressure;Samples;Min_cycle;Max_cycle;Signal;HPM_P1;HPM_P2
2022/03/10 00:00:47;;;;;;;;;20.25;19.50;;;;;7.84;41.26;102193.72;5052795;28;11427;-68
2022/03/10 00:03:14;;;;;;;;;26.00;21.25;;;;;7.81;41.06;102195.84;5080894;28;11513;-69
2022/03/10 00:05:42;;;;;;;;;23.00;19.50;;;;;7.79;41.40;102204.09;5073015;28;11531;-70
2022/03/10 00:08:08;;;;;;;;;20.00;17.50;;;;;7.74;41.79;102209.03;5073054;28;11543;-70
2022/03/10 00:10:35;;;;;;;;;24.75;19.00;;;;;7.74;41.59;102205.50;5071532;28;11253;-70
2022/03/10 00:13:03;;;;;;;;;31.00;21.75;;;;;7.65;41.61;102202.59;5079581;28;11429;-70
2022/03/10 00:15:29;;;;;;;;;14.50;14.50;;;;;7.62;42.30;102210.13;5073421;28;11579;-70
2022/03/10 00:17:56;;;;;;;;;26.00;24.00;;;;;7.62;42.50;102213.66;5075006;28;11069;-69
2022/03/10 00:20:23;;;;;;;;;29.75;19.50;;;;;7.56;41.63;102205.28;5078621;28;11448;-71
2022/03/10 00:22:51;;;;;;;;;22.25;19.25;;;;;7.58;42.21;102212.22;5081243;28;11047;-70
2022/03/10 00:25:19;;;;;;;;;25.00;21.00;;;;;7.57;42.35;102201.59;5079703;28;11196;-70
2022/03/10 00:27:46;;;;;;;;;23.25;18.75;;;;;7.54;42.10;102197.31;5073733;28;11482;-69
2022/03/10 00:30:14;;;;;;;;;17.00;12.50;;;;;7.50;42.26;102205.81;5072619;28;11174;-70
2022/03/10 00:32:46;;;;;;;;;23.25;21.00;;;;;7.47;42.30;102201.56;5079774;28;11071;-69
2022/03/10 00:35:21;;;;;;;;;11.25;9.50;;;;;7.40;42.50;102200.38;5071133;28;11373;-68
2022/03/10 00:37:54;;;;;;;;;17.00;17.00;;;;;7.45;42.57;102206.25;5059791;28;11072;-69
2022/03/10 00:40:21;;;;;;;;;22.50;21.75;;;;;7.47;42.51;102196.19;5078659;28;11453;-70
2022/03/10 00:42:48;;;;;;;;;26.75;22.75;;;;;7.45;42.62;102197.31;5072611;28;11490;-69
2022/03/10 00:45:19;;;;;;;;;27.50;21.25;;;;;7.39;42.55;102196.81;5071698;28;11542;-70
2022/03/10 00:47:46;;;;;;;;;30.25;22.75;;;;;7.37;42.25;102195.25;5083236;28;11291;-70
2022/03/10 00:50:14;;;;;;;;;23.50;22.50;;;;;7.30;43.05;102188.72;5071728;28;11595;-69
2022/03/10 00:52:42;;;;;;;;;28.00;17.25;;;;;7.38;43.02;102195.13;5083892;28;11500;-69
2022/03/10 00:55:10;;;;;;;;;23.00;18.00;;;;;7.26;42.80;102193.53;5072045;28;11567;-70
2022/03/10 00:57:37;;;;;;;;;21.50;18.25;;;;;7.33;43.17;102197.38;5072389;28;11381;-70
2022/03/10 01:00:06;;;;;;;;;22.25;17.75;;;;;7.27;43.21;102192.53;5076616;28;11570;-69
2022/03/10 01:02:35;;;;;;;;;18.50;16.25;;;;;7.26;43.01;102198.91;5074642;28;11288;-70
2022/03/10 01:05:04;;;;;;;;;24.25;22.00;;;;;7.26;43.23;102200.75;5071960;28;11444;-70
2022/03/10 01:07:30;;;;;;;;;26.00;21.00;;;;;7.25;43.35;102193.66;5072111;28;12200;-70
2022/03/10 01:09:56;;;;;;;;;23.50;21.50;;;;;7.16;43.32;102197.13;5066384;28;11520;-69
2022/03/10 01:12:23;;;;;;;;;22.75;21.25;;;;;7.15;43.91;102185.50;5062124;28;11455;-70
2022/03/10 01:14:50;;;;;;;;;24.75;23.00;;;;;7.17;43.66;102197.00;5073706;28;11520;-69
2022/03/10 01:17:16;;;;;;;;;25.00;20.00;;;;;7.17;43.55;102193.44;5076953;28;11476;-70
2022/03/10 01:19:43;;;;;;;;;28.50;23.50;;;;;7.13;43.97;102190.19;5101492;28;11452;-70
2022/03/10 01:22:09;;;;;;;;;28.50;23.75;;;;;7.02;43.90;102192.97;5077368;28;11492;-70
2022/03/10 01:24:36;;;;;;;;;35.00;25.75;;;;;7.06;44.17;102189.88;5071599;28;11455;-69
2022/03/10 01:27:03;;;;;;;;;27.25;24.00;;;;;7.10;43.92;102193.13;5067892;28;11421;-70
2022/03/10 01:29:29;;;;;;;;;23.25;22.25;;;;;7.07;44.32;102188.03;5069266;28;11524;-70
2022/03/10 01:31:55;;;;;;;;;26.25;24.00;;;;;7.04;44.52;102191.84;5079133;28;11607;-70
2022/03/10 01:34:22;;;;;;;;;23.00;21.25;;;;;7.02;44.83;102191.13;5071430;28;12197;-69
2022/03/10 01:36:48;;;;;;;;;23.00;16.00;;;;;7.01;45.13;102191.25;5071631;28;11535;-70
2022/03/10 01:39:15;;;;;;;;;24.25;20.75;;;;;6.95;44.83;102189.09;5070508;28;11270;-70
2022/03/10 01:41:41;;;;;;;;;32.75;26.25;;;;;6.87;45.11;102188.88;5077221;28;11525;-70
2022/03/10 01:44:10;;;;;;;;;32.00;26.25;;;;;6.85;45.39;102193.56;5068656;28;11473;-70
2022/03/10 01:46:37;;;;;;;;;22.25;20.75;;;;;6.83;45.44;102192.84;5077596;28;11462;-70
2022/03/10 01:49:05;;;;;;;;;24.25;19.75;;;;;6.79;45.61;102190.41;5083537;28;11557;-70
2022/03/10 01:51:33;;;;;;;;;25.50;24.00;;;;;6.68;45.90;102190.44;5069700;28;11449;-70
2022/03/10 01:54:00;;;;;;;;;24.75;22.50;;;;;6.68;45.76;102186.91;5069260;28;11555;-70
2022/03/10 01:56:26;;;;;;;;;21.50;21.50;;;;;6.72;46.08;102191.06;5079640;28;11612;-70
2022/03/10 01:58:53;;;;;;;;;27.50;22.50;;;;;6.65;45.95;102188.03;5068634;28;11467;-69
2022/03/10 02:01:22;;;;;;;;;30.50;25.50;;;;;6.68;46.20;102195.84;5070460;28;11508;-71
2022/03/10 02:03:50;;;;;;;;;20.75;18.00;;;;;6.70;46.33;102188.50;5070867;28;11539;-69
2022/03/10 02:06:16;;;;;;;;;23.25;22.00;;;;;6.62;46.68;102190.13;5070924;28;11629;-70
2022/03/10 02:11:28;;;;;;;;;30.75;28.25;;;;;6.41;46.87;102188.25;5079055;28;11541;-68
2022/03/10 02:13:55;;;;;;;;;34.00;27.50;;;;;6.40;46.92;102201.84;5071036;28;11467;-69
2022/03/10 02:19:07;;;;;;;;;33.25;29.00;;;;;6.36;47.18;102208.47;5058145;28;11668;-70
2022/03/10 02:21:34;;;;;;;;;33.25;29.50;;;;;6.25;47.86;102200.44;5071111;28;12266;-69
2022/03/10 02:24:01;;;;;;;;;25.50;18.00;;;;;6.23;47.92;102187.13;5076114;28;11465;-69
2022/03/10 02:26:27;;;;;;;;;32.00;22.75;;;;;6.33;48.12;102200.66;5070872;28;11436;-69
2022/03/10 02:28:54;;;;;;;;;33.50;27.50;;;;;6.35;48.33;102198.69;5068936;28;12212;-68
2022/03/10 02:31:20;;;;;;;;;28.25;26.50;;;;;6.38;48.53;102198.44;5076293;28;11475;-69
2022/03/10 02:33:47;;;;;;;;;25.75;21.75;;;;;6.35;48.46;102193.31;5071103;28;11460;-69
2022/03/10 02:36:14;;;;;;;;;24.00;21.00;;;;;6.34;48.37;102197.84;5069669;28;11489;-69
2022/03/10 02:38:41;;;;;;;;;26.75;23.00;;;;;6.33;48.62;102198.81;5070126;28;11943;-69
2022/03/10 02:41:08;;;;;;;;;28.00;26.50;;;;;6.29;49.18;102205.44;5068491;28;11513;-70
2022/03/10 02:43:35;;;;;;;;;24.25;21.25;;;;;6.23;49.17;102194.34;5073716;28;11573;-70
2022/03/10 02:46:01;;;;;;;;;29.00;26.25;;;;;6.22;49.40;102198.03;5083405;28;11593;-70
2022/03/10 02:48:28;;;;;;;;;29.50;22.75;;;;;6.16;49.31;102200.22;5072310;28;11465;-68
2022/03/10 02:50:54;;;;;;;;;30.50;27.00;;;;;6.16;49.50;102204.72;5082199;28;11570;-67
2022/03/10 02:53:22;;;;;;;;;34.25;28.25;;;;;6.12;50.06;102200.59;5088965;28;12225;-68
2022/03/10 02:55:49;;;;;;;;;22.50;20.75;;;;;6.11;49.59;102199.75;5069996;28;11577;-69
2022/03/10 02:58:15;;;;;;;;;31.50;23.00;;;;;6.08;50.54;102202.69;5063314;28;11559;-70
2022/03/10 03:00:42;;;;;;;;;24.00;22.25;;;;;6.06;50.28;102201.09;5080422;28;11487;-69
2022/03/10 03:03:09;;;;;;;;;26.25;22.25;;;;;6.02;50.44;102199.66;5089581;28;11443;-68
2022/03/10 03:05:35;;;;;;;;;23.75;19.75;;;;;5.99;50.72;102206.16;5068820;28;11438;-69
2022/03/10 03:08:02;;;;;;;;;24.00;21.50;;;;;5.93;51.45;102203.94;5068581;28;11614;-70
2022/03/10 03:10:29;;;;;;;;;22.75;16.25;;;;;5.93;51.41;102201.25;5069788;28;11463;-70
2022/03/10 03:12:55;;;;;;;;;26.50;23.00;;;;;5.92;50.95;102212.13;5064856;28;11483;-69
2022/03/10 03:15:21;;;;;;;;;28.50;25.75;;;;;5.88;50.98;102212.34;5067068;28;11567;-70
2022/03/10 03:17:48;;;;;;;;;30.75;28.00;;;;;5.86;51.17;102208.94;5066739;28;11520;-69
2022/03/10 03:20:15;;;;;;;;;30.75;26.00;;;;;5.85;51.23;102211.75;5073614;28;11446;-69
2022/03/10 03:22:43;;;;;;;;;21.50;20.25;;;;;5.73;51.47;102216.28;5079644;28;11454;-68
2022/03/10 03:25:13;;;;;;;;;34.50;30.00;;;;;5.79;51.50;102213.09;5073081;28;11520;-69
2022/03/10 03:27:44;;;;;;;;;29.75;26.50;;;;;5.77;51.28;102224.97;5069301;28;11535;-69
2022/03/10 03:30:11;;;;;;;;;37.50;32.25;;;;;5.64;51.81;102222.38;5067732;28;11525;-69
2022/03/10 03:32:37;;;;;;;;;41.50;33.75;;;;;5.67;51.73;102216.75;5071238;28;11595;-69
2022/03/10 03:35:04;;;;;;;;;24.75;21.50;;;;;5.69;51.50;102220.19;5071543;28;11498;-68
2022/03/10 03:37:30;;;;;;;;;40.75;32.75;;;;;5.69;51.70;102228.25;5069000;28;11566;-69
2022/03/10 03:39:57;;;;;;;;;36.50;32.50;;;;;5.65;52.06;102225.94;5073765;28;11660;-69
2022/03/10 03:42:23;;;;;;;;;31.50;27.00;;;;;5.61;52.25;102228.00;5073902;28;11646;-69
2022/03/10 03:44:51;;;;;;;;;28.25;21.75;;;;;5.56;52.41;102225.69;5069153;28;11624;-69
2022/03/10 03:47:18;;;;;;;;;38.50;32.00;;;;;5.50;52.23;102230.72;5069804;28;11583;-70
2022/03/10 03:49:44;;;;;;;;;34.50;31.50;;;;;5.40;52.56;102233.25;5070111;28;11527;-69
2022/03/10 03:52:11;;;;;;;;;29.00;27.75;;;;;5.49;52.75;102231.69;5051454;28;12368;-70
2022/03/10 03:54:38;;;;;;;;;32.50;25.50;;;;;5.48;52.76;102238.88;5069406;28;11550;-70
2022/03/10 03:57:04;;;;;;;;;29.25;28.00;;;;;5.35;52.73;102239.97;5074237;28;11680;-70
2022/03/10 03:59:30;;;;;;;;;38.25;28.00;;;;;5.41;53.19;102242.16;5069439;28;11595;-68
2022/03/10 04:01:57;;;;;;;;;35.00;24.75;;;;;5.37;53.49;102246.94;5069262;28;11643;-68
2022/03/10 04:04:24;;;;;;;;;29.75;27.25;;;;;5.37;53.18;102246.94;5068719;28;12266;-69
2022/03/10 04:06:50;;;;;;;;;34.25;29.75;;;;;5.32;53.50;102240.22;5074695;28;11659;-70
2022/03/10 04:09:17;;;;;;;;;36.75;32.25;;;;;5.36;53.60;102241.69;5069630;28;11647;-68
2022/03/10 04:11:43;;;;;;;;;32.50;28.75;;;;;5.39;53.87;102241.44;5069293;28;11547;-69
2022/03/10 04:14:12;;;;;;;;;38.50;32.00;;;;;5.37;54.07;102241.56;5067003;28;12200;-70
2022/03/10 04:16:39;;;;;;;;;36.50;32.25;;;;;5.35;54.23;102243.50;5079644;28;11538;-68
2022/03/10 04:19:06;;;;;;;;;47.00;36.50;;;;;5.30;54.36;102243.03;5072908;28;11534;-70
2022/03/10 04:21:33;;;;;;;;;40.00;34.25;;;;;5.25;54.49;102240.69;5089431;22;12793;-66
2022/03/10 04:23:59;;;;;;;;;33.75;30.75;;;;;5.31;54.46;102254.63;5094556;28;11560;-68
2022/03/10 04:26:26;;;;;;;;;32.00;27.00;;;;;5.35;53.99;102242.66;5094972;28;11561;-67
2022/03/10 04:28:53;;;;;;;;;31.00;27.00;;;;;5.28;54.16;102244.13;5077756;28;11673;-67
2022/03/10 04:31:20;;;;;;;;;41.00;35.75;;;;;5.12;55.03;102247.13;5087856;28;11581;-69
2022/03/10 04:33:46;;;;;;;;;46.75;39.00;;;;;5.19;55.09;102243.84;5098795;28;11634;-67
2022/03/10 04:36:13;;;;;;;;;27.25;22.00;;;;;5.14;55.17;102240.66;5130769;27;11685;-67
2022/03/10 04:38:40;;;;;;;;;34.50;31.50;;;;;5.18;55.34;102246.66;5092026;28;11521;-68
2022/03/10 04:41:07;;;;;;;;;35.50;26.50;;;;;5.06;55.41;102244.94;5093255;28;11548;-67
2022/03/10 04:43:33;;;;;;;;;39.00;33.50;;;;;5.11;55.58;102246.28;5077707;28;11553;-68
2022/03/10 04:46:06;;;;;;;;;31.25;28.25;;;;;5.11;55.17;102232.00;5093152;28;11606;-66
2022/03/10 04:48:36;;;;;;;;;35.50;29.50;;;;;5.11;55.63;102238.22;5092984;28;11551;-65
2022/03/10 04:51:02;;;;;;;;;37.50;33.00;;;;;5.11;55.63;102235.53;5092910;28;11521;-66
2022/03/10 04:53:29;;;;;;;;;35.75;32.75;;;;;5.07;55.98;102243.94;5108987;28;11542;-67
2022/03/10 04:55:55;;;;;;;;;45.00;35.25;;;;;5.08;55.95;102242.97;5092885;28;11528;-66
2022/03/10 04:58:22;;;;;;;;;31.75;30.00;;;;;5.09;56.02;102239.31;5095221;28;11541;-68
2022/03/10 05:00:49;;;;;;;;;34.00;31.00;;;;;5.08;55.89;102242.97;5114365;28;11673;-67
2022/03/10 05:03:16;;;;;;;;;33.75;31.50;;;;;5.10;56.35;102243.72;5100920;28;12026;-67
2022/03/10 05:05:42;;;;;;;;;38.25;27.50;;;;;5.01;56.04;102242.59;5093544;28;11679;-68
2022/03/10 05:08:11;;;;;;;;;49.00;36.50;;;;;4.92;56.62;102237.94;5093828;28;11545;-68
2022/03/10 05:10:38;;;;;;;;;41.00;28.00;;;;;4.90;56.38;102248.78;5072533;28;11550;-67
2022/03/10 05:13:04;;;;;;;;;43.25;36.75;;;;;5.01;56.37;102252.50;5071306;28;11612;-67
2022/03/10 05:15:32;;;;;;;;;45.25;38.00;;;;;5.05;56.05;102248.59;5075465;28;11585;-67
2022/03/10 05:18:01;;;;;;;;;35.75;33.75;;;;;4.97;56.36;102251.03;5093032;28;11563;-67
2022/03/10 05:20:28;;;;;;;;;41.50;35.75;;;;;4.96;56.49;102247.47;5109971;28;11547;-67
2022/03/10 05:22:57;;;;;;;;;45.00;36.00;;;;;4.98;56.52;102250.03;5112937;28;11558;-69
2022/03/10 05:25:34;;;;;;;;;42.75;36.00;;;;;5.01;56.44;102242.59;5098136;28;12256;-67
2022/03/10 05:28:00;;;;;;;;;32.75;28.00;;;;;5.00;56.55;102245.41;5092759;28;11541;-67
2022/03/10 05:30:27;;;;;;;;;35.25;30.25;;;;;4.92;56.73;102243.28;5093862;28;11551;-67
2022/03/10 05:32:53;;;;;;;;;30.50;25.75;;;;;4.91;56.72;102239.75;5091154;28;11608;-66
2022/03/10 05:35:20;;;;;;;;;32.25;29.25;;;;;4.92;56.54;102243.28;5110435;28;12301;-68
2022/03/10 05:37:48;;;;;;;;;28.75;24.00;;;;;4.89;56.87;102238.16;5113071;28;11516;-68
2022/03/10 05:40:18;;;;;;;;;36.75;31.25;;;;;4.89;56.88;102243.53;5109884;28;11529;-67
2022/03/10 05:42:46;;;;;;;;;38.25;35.00;;;;;4.87;56.96;102242.81;5082805;28;11524;-66
2022/03/10 05:45:13;;;;;;;;;25.00;22.50;;;;;4.86;57.12;102244.63;5090283;28;12415;-68
2022/03/10 05:47:42;;;;;;;;;37.75;33.25;;;;;4.86;57.09;102246.47;5091695;28;12282;-68
2022/03/10 05:50:09;;;;;;;;;28.00;22.50;;;;;4.82;57.47;102250.34;5091278;28;11538;-69
2022/03/10 05:52:36;;;;;;;;;37.00;29.00;;;;;4.86;57.31;102249.13;5109526;27;12315;-69
2022/03/10 05:55:03;;;;;;;;;33.75;30.00;;;;;4.88;57.04;102248.03;5091760;28;11548;-67
2022/03/10 05:57:30;;;;;;;;;34.00;31.75;;;;;4.87;56.91;102243.66;5091560;28;11652;-68
2022/03/10 05:59:56;;;;;;;;;35.50;31.50;;;;;4.81;57.30;102243.28;5106126;28;11616;-67
2022/03/10 06:02:24;;;;;;;;;44.25;37.75;;;;;4.76;57.62;102248.16;5083534;28;12288;-67
2022/03/10 06:04:50;;;;;;;;;32.50;30.75;;;;;4.76;57.59;102243.63;5085923;28;11621;-68
2022/03/10 06:07:17;;;;;;;;;43.00;37.50;;;;;4.77;57.76;102255.22;5090245;28;11558;-67
2022/03/10 06:09:43;;;;;;;;;46.25;35.00;;;;;4.67;57.95;102256.88;5104477;28;11649;-67
2022/03/10 06:12:10;;;;;;;;;34.75;31.75;;;;;4.67;57.88;102248.81;5094235;28;11605;-67
2022/03/10 06:14:37;;;;;;;;;39.75;32.25;;;;;4.74;57.89;102253.63;5103557;28;11515;-68
2022/03/10 06:17:04;;;;;;;;;44.50;33.75;;;;;4.73;58.04;102259.97;5111736;28;11538;-66
2022/03/10 06:19:31;;;;;;;;;41.75;35.50;;;;;4.67;58.35;102257.72;5103477;28;11593;-67
2022/03/10 06:21:57;;;;;;;;;42.25;34.25;;;;;4.56;59.23;102252.31;5087811;28;11535;-67
2022/03/10 06:24:24;;;;;;;;;53.25;34.00;;;;;4.59;58.96;102254.78;5091631;28;12285;-67
2022/03/10 06:26:50;;;;;;;;;38.50;34.25;;;;;4.63;58.64;102251.75;5091453;28;11551;-67
2022/03/10 06:29:17;;;;;;;;;30.75;27.50;;;;;4.63;58.53;102254.41;5091215;28;11533;-67
2022/03/10 06:31:43;;;;;;;;;39.50;37.25;;;;;4.78;58.17;102254.25;5088391;28;11538;-67
2022/03/10 06:34:10;;;;;;;;;36.25;31.75;;;;;5.73;56.26;102253.06;5114019;27;11511;-69
2022/03/10 06:36:36;;;;;;;;;34.75;31.50;;;;;6.53;53.05;102247.41;5091181;28;11576;-67
2022/03/10 06:39:03;;;;;;;;;33.00;29.50;;;;;6.95;51.29;102254.56;5090765;28;11534;-68
2022/03/10 06:41:29;;;;;;;;;31.75;29.00;;;;;7.36;49.91;102255.53;5089057;28;11591;-68
2022/03/10 06:43:56;;;;;;;;;34.50;33.00;;;;;7.22;50.02;102255.88;5094733;28;11542;-68
2022/03/10 06:46:22;;;;;;;;;27.25;24.00;;;;;7.26;49.99;102254.63;5079717;28;11719;-69
2022/03/10 06:48:49;;;;;;;;;34.75;33.00;;;;;6.86;50.80;102271.47;5081120;28;11515;-67
2022/03/10 06:51:16;;;;;;;;;42.25;34.50;;;;;6.75;51.12;102268.84;5086232;28;12252;-69
2022/03/10 06:53:57;;;;;;;;;45.00;34.75;;;;;6.56;51.52;102264.16;5070551;28;11542;-67
2022/03/10 06:56:29;;;;;;;;;46.75;38.75;;;;;6.87;51.27;102275.88;5070359;28;11689;-68
2022/03/10 06:59:00;;;;;;;;;39.00;31.25;;;;;7.53;49.28;102264.84;5069017;28;11546;-66
2022/03/10 07:01:29;;;;;;;;;32.00;22.00;;;;;7.97;47.86;102267.16;5090103;28;11606;-72
2022/03/10 07:04:10;;;;;;;;;42.75;37.00;;;;;8.24;47.10;102265.66;5073392;28;11535;-71
2022/03/10 07:07:08;;;;;;;;;42.50;36.75;;;;;8.42;46.44;102273.94;5089274;28;11502;-70
2022/03/10 07:09:56;;;;;;;;;36.25;32.75;;;;;8.17;46.50;102259.94;5090694;28;11551;-69
2022/03/10 07:12:41;;;;;;;;;30.25;27.25;;;;;8.05;47.18;102262.91;5089099;28;11516;-69
2022/03/10 07:15:14;;;;;;;;;35.00;31.75;;;;;8.28;46.14;102264.38;5073581;28;11480;-71
2022/03/10 07:17:42;;;;;;;;;39.00;32.75;;;;;8.44;45.47;102272.00;5109286;28;11591;-70
2022/03/10 07:20:09;;;;;;;;;41.00;37.00;;;;;8.13;46.49;102276.56;5110112;28;11540;-69
2022/03/10 07:22:36;;;;;;;;;29.25;27.75;;;;;8.12;47.00;102281.09;5110388;28;11559;-67
2022/03/10 07:25:04;;;;;;;;;35.00;28.25;;;;;7.74;47.61;102286.34;5110375;28;11472;-70
2022/03/10 07:27:30;;;;;;;;;40.00;35.75;;;;;7.85;47.64;102272.78;5071782;28;12469;-70
2022/03/10 07:29:57;;;;;;;;;39.25;36.00;;;;;7.95;47.84;102281.78;5070384;28;12369;-69
2022/03/10 07:32:25;;;;;;;;;43.50;39.00;;;;;7.97;47.38;102269.84;5089472;28;11501;-70
2022/03/10 07:34:52;;;;;;;;;41.50;37.00;;;;;8.14;47.63;102273.72;5088860;28;11593;-70
2022/03/10 07:37:18;;;;;;;;;37.00;32.75;;;;;8.11;46.60;102267.75;5090135;28;11580;-70
2022/03/10 07:39:45;;;;;;;;;42.50;36.75;;;;;8.28;46.86;102273.34;5088358;28;11578;-70
2022/03/10 07:42:11;;;;;;;;;43.25;32.50;;;;;8.26;46.68;102278.03;5095752;28;11527;-70
2022/03/10 07:44:40;;;;;;;;;32.25;27.75;;;;;8.33;46.71;102278.31;5109111;28;11562;-70
2022/03/10 07:47:06;;;;;;;;;37.25;35.50;;;;;8.17;46.98;102277.97;5110087;28;11480;-70
2022/03/10 07:49:33;;;;;;;;;34.75;30.50;;;;;8.21;46.86;102276.75;5109068;28;11479;-71
2022/03/10 07:52:02;;;;;;;;;34.50;33.50;;;;;8.27;46.76;102278.88;5094838;28;11472;-70
2022/03/10 07:54:28;;;;;;;;;39.25;34.25;;;;;8.34;46.77;102280.03;5093213;28;11643;-69
2022/03/10 07:56:55;;;;;;;;;41.25;27.25;;;;;8.54;46.13;102275.53;5093129;28;11580;-70
2022/03/10 07:59:21;;;;;;;;;43.25;37.75;;;;;8.59;46.44;102278.66;5094713;28;11500;-69
2022/03/10 08:01:48;;;;;;;;;28.75;25.50;;;;;8.69;46.17;102273.28;5092591;28;12323;-71
2022/03/10 08:04:15;;;;;;;;;30.50;29.00;;;;;8.76;45.79;102272.56;5093169;28;11496;-72
2022/03/10 08:06:42;;;;;;;;;45.75;35.50;;;;;8.93;45.47;102274.56;5092712;28;11485;-70
2022/03/10 08:09:10;;;;;;;;;28.00;23.25;;;;;9.22;45.40;102276.38;5093419;28;11621;-77
2022/03/10 08:11:38;;;;;;;;;43.50;34.25;;;;;9.30;44.96;102272.94;5093755;28;11512;-72
2022/03/10 08:14:07;;;;;;;;;32.25;28.00;;;;;9.37;44.67;102272.19;5092909;28;11525;-75
2022/03/10 08:16:34;;;;;;;;;35.75;33.75;;;;;9.72;44.28;102268.84;5127824;27;11481;-71
2022/03/10 08:19:01;;;;;;;;;35.00;30.75;;;;;9.95;44.08;102263.91;5114409;28;11476;-69
2022/03/10 08:21:27;;;;;;;;;43.25;35.25;;;;;10.16;42.94;102271.72;5113430;28;11607;-67
2022/03/10 08:23:54;;;;;;;;;48.00;38.75;;;;;10.48;42.55;102274.00;5087697;28;11593;-71
2022/03/10 08:26:22;;;;;;;;;44.25;33.00;;;;;10.20;42.39;102267.75;5092262;28;12372;-67
2022/03/10 08:28:51;;;;;;;;;41.00;36.75;;;;;10.59;42.15;102268.34;5092192;28;11552;-69
2022/03/10 08:31:18;;;;;;;;;34.75;27.00;;;;;10.68;41.53;102258.47;5091813;28;11473;-69
2022/03/10 08:33:46;;;;;;;;;38.00;31.75;;;;;10.99;41.46;102261.63;5113085;28;11356;-69
2022/03/10 08:36:14;;;;;;;;;37.00;33.00;;;;;11.08;41.39;102253.38;5129510;27;12101;-68
2022/03/10 08:38:41;;;;;;;;;34.50;31.75;;;;;11.27;41.24;102252.34;5099978;28;11492;-69
2022/03/10 08:41:08;;;;;;;;;40.75;33.00;;;;;11.20;40.91;102250.44;5108781;28;11041;-69
2022/03/10 08:43:35;;;;;;;;;44.25;36.50;;;;;10.92;40.62;102258.69;5091792;28;11293;-68
2022/03/10 08:46:04;;;;;;;;;44.25;37.75;;;;;11.21;40.21;102249.44;5091887;28;11522;-69
2022/03/10 08:48:32;;;;;;;;;30.25;25.50;;;;;12.36;51.75;102251.69;5093089;28;12228;-71
2022/03/10 08:50:59;;;;;;;;;38.50;30.50;;;;;12.23;40.75;102244.03;5091456;28;10868;-71
2022/03/10 08:53:26;;;;;;;;;29.50;29.00;;;;;12.55;39.64;102251.38;5092877;28;11093;-71
2022/03/10 08:55:53;;;;;;;;;39.50;30.00;;;;;12.49;38.98;102250.19;5093005;28;11034;-67
2022/03/10 08:58:21;;;;;;;;;44.50;37.50;;;;;12.45;38.94;102245.28;5092818;28;10951;-67
2022/03/10 09:00:48;;;;;;;;;42.50;39.75;;;;;11.85;38.98;102254.41;5090957;28;12254;-67
2022/03/10 09:03:34;;;;;;;;;31.75;29.50;;;;;12.16;39.39;102245.72;5092297;28;11199;-67
2022/03/10 09:06:01;;;;;;;;;40.75;34.25;;;;;12.26;38.77;102249.97;5102090;28;10868;-67
2022/03/10 09:08:28;;;;;;;;;38.25;34.75;;;;;12.42;38.07;102251.91;5113064;28;10935;-67
2022/03/10 09:10:54;;;;;;;;;25.50;24.00;;;;;12.51;38.58;102245.44;5112260;28;11569;-69
2022/03/10 09:13:22;;;;;;;;;46.50;40.50;;;;;12.41;38.57;102244.75;5112779;28;10852;-67
2022/03/10 09:15:48;;;;;;;;;33.25;30.25;;;;;12.74;38.00;102236.66;5076695;28;11517;-70
2022/03/10 09:18:15;;;;;;;;;32.00;29.75;;;;;12.96;38.34;102235.97;5092433;28;10758;-68
2022/03/10 09:20:41;;;;;;;;;35.50;29.00;;;;;13.19;38.24;102238.88;5092324;28;10941;-68
2022/03/10 09:23:08;;;;;;;;;35.00;33.50;;;;;13.39;37.65;102229.34;5102392;28;10793;-69
2022/03/10 09:25:34;;;;;;;;;39.00;35.75;;;;;13.59;37.58;102228.91;5111413;28;10739;-67
2022/03/10 09:28:02;;;;;;;;;36.50;34.50;;;;;13.48;37.73;102231.00;5112482;28;10863;-68
2022/03/10 09:30:30;;;;;;;;;42.75;36.00;;;;;13.56;37.70;102235.56;5111244;28;10978;-67
2022/03/10 09:32:57;;;;;;;;;37.50;31.50;;;;;13.66;37.88;102235.38;5112166;28;10884;-68
2022/03/10 09:35:25;;;;;;;;;40.00;34.75;;;;;13.42;37.77;102226.25;5109224;28;10851;-67
2022/03/10 09:37:52;;;;;;;;;35.75;30.25;;;;;13.50;37.79;102234.38;5071854;28;10728;-69
2022/03/10 09:40:19;;;;;;;;;36.25;32.25;;;;;13.42;37.83;102233.56;5104741;28;10775;-68
2022/03/10 09:42:47;;;;;;;;;43.50;38.50;;;;;13.09;38.56;102230.84;5111925;28;11869;-67
2022/03/10 09:45:15;;;;;;;;;31.25;28.75;;;;;13.54;38.21;102227.56;5127475;27;10962;-69
2022/03/10 09:47:44;;;;;;;;;36.50;32.50;;;;;13.20;38.95;102219.66;5127994;27;10694;-70
2022/03/10 09:50:18;;;;;;;;;40.50;35.50;;;;;13.39;38.33;102231.19;5101776;28;10974;-68
2022/03/10 09:52:46;;;;;;;;;38.50;33.50;;;;;13.29;38.96;102215.06;5091765;28;11759;-68
2022/03/10 09:55:16;;;;;;;;;41.75;37.00;;;;;13.49;38.42;102216.38;5090480;28;10760;-69
2022/03/10 09:57:44;;;;;;;;;33.75;29.75;;;;;13.72;37.73;102221.06;5090552;28;11001;-67
2022/03/10 10:00:14;;;;;;;;;38.00;33.25;;;;;13.83;38.02;102217.94;5090950;28;10924;-69
2022/03/10 10:02:42;;;;;;;;;34.75;32.50;;;;;13.80;38.42;102219.16;5091409;28;10819;-71
2022/03/10 10:05:28;;;;;;;;;28.00;26.50;;;;;13.70;38.02;102214.94;5102095;28;11075;-69
2022/03/10 10:08:17;;;;;;;;;37.75;32.50;;;;;13.98;38.36;102209.88;5074244;28;10717;-68
2022/03/10 10:10:45;;;;;;;;;35.00;30.00;;;;;13.85;38.16;102213.16;5108551;28;10854;-68
2022/03/10 10:13:26;;;;;;;;;34.25;31.75;;;;;13.73;38.26;102206.44;5109958;28;10657;-69
2022/03/10 10:15:58;;;;;;;;;45.25;36.75;;;;;13.57;38.55;102210.03;5111287;27;10662;-67
2022/03/10 10:18:26;;;;;;;;;39.25;33.25;;;;;13.69;38.45;102208.66;5091662;28;10794;-69
2022/03/10 10:21:18;;;;;;;;;36.75;34.00;;;;;13.98;38.51;102207.16;5091989;28;10646;-67
2022/03/10 10:23:49;;;;;;;;;31.50;27.50;;;;;13.99;38.81;102206.13;5093500;28;10892;-70
2022/03/10 10:26:16;;;;;;;;;44.75;35.75;;;;;13.93;38.29;102206.84;5091147;28;10414;-69
2022/03/10 10:28:49;;;;;;;;;41.00;34.50;;;;;14.13;38.33;102206.25;5091670;28;10950;-70
2022/03/10 10:31:18;;;;;;;;;33.00;28.50;;;;;14.21;38.48;102199.88;5092125;28;10772;-70
2022/03/10 10:34:06;;;;;;;;;40.00;32.50;;;;;14.21;38.06;102207.22;5091937;28;10388;-71
2022/03/10 10:36:34;;;;;;;;;36.50;32.00;;;;;14.25;38.57;102205.81;5092033;28;10422;-70
2022/03/10 10:39:16;;;;;;;;;34.75;33.50;;;;;14.27;37.96;102201.03;5108044;28;10430;-71
2022/03/10 10:41:45;;;;;;;;;34.00;32.25;;;;;14.27;38.49;102201.88;5107929;28;10608;-70
2022/03/10 10:44:16;;;;;;;;;38.00;33.75;;;;;14.34;38.25;102202.00;5111151;28;10487;-69
2022/03/10 10:46:44;;;;;;;;;39.00;33.75;;;;;14.35;38.12;102199.09;5069671;28;10572;-71
2022/03/10 10:49:17;;;;;;;;;28.75;27.75;;;;;14.46;38.04;102197.88;5070984;28;10552;-70
2022/03/10 10:51:44;;;;;;;;;39.50;36.75;;;;;14.34;38.20;102199.28;5085614;28;10313;-71
2022/03/10 10:54:20;;;;;;;;;33.00;30.75;;;;;14.34;37.94;102205.56;5090152;28;10748;-72
2022/03/10 10:56:49;;;;;;;;;37.25;32.50;;;;;14.27;38.25;102198.31;5090756;28;10319;-71
2022/03/10 10:59:32;;;;;;;;;38.50;34.00;;;;;14.16;38.21;102185.97;5089811;28;10523;-71
2022/03/10 11:02:09;;;;;;;;;39.50;33.00;;;;;14.05;38.43;102191.81;5090887;28;10562;-69
2022/03/10 11:04:41;;;;;;;;;40.25;36.25;;;;;14.05;38.23;102180.91;5091500;28;10773;-71
2022/03/10 11:07:09;;;;;;;;;29.00;29.00;;;;;14.33;38.56;102187.53;5074102;28;10810;-71
2022/03/10 11:09:39;;;;;;;;;33.25;29.00;;;;;14.32;38.25;102177.66;5091423;28;10484;-71
2022/03/10 11:12:08;;;;;;;;;31.00;25.25;;;;;14.45;38.21;102177.13;5105698;28;10489;-71
2022/03/10 11:14:35;;;;;;;;;37.75;34.25;;;;;14.31;38.03;102175.97;5096336;28;10383;-72
2022/03/10 11:17:03;;;;;;;;;30.25;23.50;;;;;14.27;38.51;102184.69;5111458;28;10875;-71
2022/03/10 11:19:35;;;;;;;;;34.75;33.75;;;;;14.40;38.70;102177.63;5109518;28;10311;-71
2022/03/10 11:22:22;;;;;;;;;29.00;25.75;;;;;14.36;38.61;102170.81;5110356;28;11522;-71
2022/03/10 11:25:21;;;;;;;;;34.75;33.75;;;;;14.37;38.09;102177.13;5096393;28;10303;-71